My Meet Scores
Maddie Michelon, Gym Stars ETC - MyMeetScores.com
Top100 | Top Teams | Upcoming Meets | Completed Meets | Latest | Add Scores | Help| Support | Bookmark and Share

Maddie Michelon, Gym Stars ETC
Personal Bests
LevelVault BarsBeamFloorAA
XG9.3509.650 9.5509.52537.500
XS9.5759.575 9.5759.50038.100
Meet Scores
Date Meet Team Session Level Division Vault Bars Beam Floor AA
2019-05-03 2019 Region 5 Xcel Championships Gym Stars ETC 03O XG SR C 9.050 15 9.100 28T 9.250 22 9.100 31 36.500 25T
2019-04-05 2019 Illinois XG, XP, XD State Championships Gym Stars ETC 8 XG Sr D 9.225 4 9.475 9 9.350 4 9.450 3 37.500 2
2019-03-08 Lucky Invite Gym Stars ETC B03 XG Sr 9.100 5 9.475 3 9.550 4T 9.300 7T 37.425 3
2019-02-15 Women's Midwest Open Gym Stars ETC 10 XG Senior B 9.100 8T 9.300 4 9.025 12 9.300 9T 36.725 7
2019-02-01 St. Valentines Classic Gym Stars ETC 5B XG 13 yrs. 8.700 9T 8.900 9T 9.125 3 9.000 6T 35.725 4
2019-01-11 St Jude Benefit Meet Gym Stars ETC 5C XG Sr B 9.325 4 9.400 6 8.975 7T 8.900 9 36.600 6
2018-12-14 Hawaiian Pineapple Classic Gym Stars ETC 7A XG Ages14+ 8.900 6 9.550 1 9.325 3 9.000 11T 36.775 2
2018-11-17 Paul Hamm Thanksgiving Class WOMENS Gym Stars ETC 8 XG Older 9.350 2 9.225 11 9.125 5 9.400 4 37.100 3T
2018-04-26 Xcel Region 5 Championships Gym Stars ETC 9A XG Jr F 9.025 17 8.900 27 8.100 27 9.225 20 35.250 25
2018-04-06 XCEL State Championships Gym Stars ETC 5B XG Jr D 9.175 2 9.450 7 8.650 18 9.250 12T 36.525 7
2018-03-09 Lucky Invitational Gym Stars ETC B06 XG Jr B 9.050 4T 9.625 3T 8.875 10 9.300 9T 36.850 4
2018-02-16 Big Classic Gym Stars ETC 9B XG Senior A 8.550 7 9.175 3 9.100 4 9.525 2 36.350 4
2018-01-12 St Jude Benefit Meet Gym Stars ETC 8A XG JrB 9.125 6T 9.650 1T 9.275 3 9.250 4T 37.300 2
2017-12-14 2017 Women's Hawaiian Pineapple Classic Gym Stars ETC 7A XG Ages13+ 8.600 14 9.200 8 9.150 1 9.250 4 36.200 3T
2017-05-11 2017 Region 5 Xcel Championships Gym Stars ETC 7B XS Jr I 9.475 4 9.575 5 9.400 4T 9.325 12T 37.775 2
2017-03-10 Lucky Invitational Gym Stars ETC B07 XS Sr A 9.575 2 9.475 6 9.550 4 9.500 2 38.100 2
2017-02-24 Kinetic Classic Gym Stars ETC 8 XS All Ages 9.500 1 9.525 11T 9.575 17 8.775 40T 37.375 9
2017-02-10 IGI Chicago Style Gymnastics Meet Gym Stars ETC 631L XS Sr 9.275 3 9.225 4 9.475 5 9.000 5 36.975 4
2017-01-20 2017 Bravo Classic Gym Stars ETC 01B XS 11yrs 9.150 5T 9.450 3T 9.500 2 8.900 9 37.000 1
2016-12-15 2016 Hawaiian Pineapple Sanction Gym Stars ETC 7B XS Age 12 9.375 9 9.325 3 9.400 6 8.825 9 36.925 5
Get your scores on
a t-shirt, pin, or hoodie

www.lazysuits.com